Time;durP1;ratioP1;P1;durP2;ratioP2;P2;SDS_P1;SDS_P2;PMS_P1;PMS_P2;Temp;Humidity;BMP_temperature;BMP_pressure;BME280_temperature;BME280_humidity;BME280_pressure;Samples;Min_cycle;Max_cycle;Signal;HPM_P1;HPM_P2
2023/01/01 00:01:10;;;;;;;22.17;17.23;;;;;;;12.96;100.00;100418.75;5043718;28;20261;-74
2023/01/01 00:03:36;;;;;;;17.13;14.20;;;;;;;13.01;100.00;100422.13;5040638;28;20218;-72
2023/01/01 00:06:06;;;;;;;16.27;12.60;;;;;;;13.03;100.00;100418.38;5039157;28;20265;-72
2023/01/01 00:08:38;;;;;;;16.45;11.93;;;;;;;13.03;100.00;100414.78;5038637;28;20194;-72
2023/01/01 00:11:05;;;;;;;15.82;12.60;;;;;;;12.93;100.00;100406.28;5039274;28;20208;-72
2023/01/01 00:13:32;;;;;;;20.08;13.60;;;;;;;12.80;100.00;100416.03;5037766;28;20202;-73
2023/01/01 00:16:04;;;;;;;22.58;16.50;;;;;;;12.79;100.00;100417.00;5037840;28;20200;-73
2023/01/01 00:18:30;;;;;;;22.20;16.85;;;;;;;12.69;100.00;100414.78;5038278;28;20190;-73
2023/01/01 00:21:03;;;;;;;26.05;19.55;;;;;;;12.65;100.00;100413.22;5039080;28;20190;-73
2023/01/01 00:23:30;;;;;;;26.08;19.60;;;;;;;12.58;100.00;100405.53;5038070;28;20249;-72
2023/01/01 00:25:59;;;;;;;25.65;22.35;;;;;;;12.46;100.00;100407.06;5038268;28;20202;-72
2023/01/01 00:28:25;;;;;;;35.22;24.67;;;;;;;12.39;100.00;100411.91;5037432;28;20198;-72
2023/01/01 00:30:52;;;;;;;38.35;25.85;;;;;;;12.51;100.00;100405.84;5041165;28;20702;-73
2023/01/01 00:33:19;;;;;;;33.00;23.95;;;;;;;12.61;100.00;100408.06;5042048;28;20198;-72
2023/01/01 00:35:48;;;;;;;31.00;23.75;;;;;;;12.63;100.00;100407.00;5043501;28;20262;-73
2023/01/01 00:38:15;;;;;;;29.35;23.20;;;;;;;12.68;100.00;100399.53;5046099;28;20281;-73
2023/01/01 00:40:41;;;;;;;33.80;22.77;;;;;;;12.66;100.00;100403.28;5043504;28;20296;-75
2023/01/01 00:43:09;;;;;;;34.25;24.70;;;;;;;12.49;100.00;100399.66;5040240;28;20221;-72
2023/01/01 00:45:36;;;;;;;36.53;27.15;;;;;;;12.47;100.00;100406.09;5039086;28;20679;-73
2023/01/01 00:48:03;;;;;;;32.95;25.80;;;;;;;12.40;100.00;100399.28;5040242;28;20254;-72
2023/01/01 00:50:29;;;;;;;35.08;27.70;;;;;;;12.37;100.00;100408.41;5040573;28;20210;-73
2023/01/01 00:52:56;;;;;;;30.02;22.27;;;;;;;12.46;100.00;100409.75;5040330;28;20676;-73
2023/01/01 00:55:22;;;;;;;33.45;25.60;;;;;;;12.41;100.00;100409.97;5040686;28;20205;-73
2023/01/01 00:57:49;;;;;;;28.40;23.23;;;;;;;12.42;100.00;100405.47;5039869;28;20209;-75
2023/01/01 01:02:51;;;;;;;34.05;22.77;;;;;;;12.32;100.00;100410.47;4996081;28;20241;-74
2023/01/01 01:05:18;;;;;;;30.70;23.15;;;;;;;12.14;100.00;100417.69;4997884;28;20217;-74
2023/01/01 01:07:45;;;;;;;27.60;21.85;;;;;;;12.15;100.00;100416.75;4997179;28;20222;-74
2023/01/01 01:10:12;;;;;;;30.52;23.88;;;;;;;12.11;100.00;100412.47;5004066;28;20716;-75
2023/01/01 01:12:38;;;;;;;32.42;24.65;;;;;;;12.10;100.00;100421.53;5020629;28;20219;-77
2023/01/01 01:15:07;;;;;;;31.45;24.77;;;;;;;11.96;100.00;100410.53;5021486;28;20203;-76
2023/01/01 01:17:34;;;;;;;31.98;23.90;;;;;;;11.94;100.00;100409.75;5021780;28;20297;-74
2023/01/01 01:20:03;;;;;;;37.83;27.75;;;;;;;12.00;100.00;100404.03;5019750;28;20206;-77
2023/01/01 01:22:29;;;;;;;31.42;24.95;;;;;;;11.92;100.00;100406.25;5017108;28;20219;-75
2023/01/01 01:24:57;;;;;;;33.00;23.80;;;;;;;11.91;100.00;100404.50;5003782;28;20614;-75
2023/01/01 01:27:23;;;;;;;32.67;24.63;;;;;;;11.95;100.00;100411.50;4998899;28;20572;-75
2023/01/01 01:29:52;;;;;;;38.42;25.80;;;;;;;11.82;100.00;100417.47;5009846;28;20195;-74
2023/01/01 01:32:19;;;;;;;31.00;23.70;;;;;;;11.92;100.00;100417.94;5014297;28;20250;-74
2023/01/01 01:34:46;;;;;;;35.85;27.05;;;;;;;11.84;100.00;100407.47;5016432;28;20255;-74
2023/01/01 01:37:14;;;;;;;40.17;28.98;;;;;;;11.87;100.00;100410.09;5017420;28;20247;-73
2023/01/01 01:39:42;;;;;;;40.65;29.63;;;;;;;11.73;100.00;100415.25;5009057;28;20213;-75
2023/01/01 01:42:15;;;;;;;38.42;29.63;;;;;;;11.78;100.00;100418.59;5005107;28;20233;-75
2023/01/01 01:44:57;;;;;;;41.47;30.30;;;;;;;11.74;100.00;100421.53;5000385;28;20219;-74
2023/01/01 01:47:32;;;;;;;46.30;32.40;;;;;;;11.65;100.00;100412.06;5001825;28;20199;-75
2023/01/01 01:50:06;;;;;;;42.70;32.15;;;;;;;11.73;100.00;100417.94;5004359;28;20643;-75
2023/01/01 01:52:36;;;;;;;49.47;34.15;;;;;;;11.53;100.00;100410.84;5016676;28;20218;-74
2023/01/01 01:55:07;;;;;;;49.22;37.00;;;;;;;11.62;100.00;100414.91;5028316;28;20194;-75
2023/01/01 01:57:34;;;;;;;46.38;36.95;;;;;;;11.48;100.00;100416.44;5024509;28;20210;-75
2023/01/01 02:00:03;;;;;;;51.97;38.38;;;;;;;11.50;100.00;100407.44;5014054;28;20195;-75
2023/01/01 02:02:35;;;;;;;57.65;40.72;;;;;;;11.51;100.00;100411.84;5000874;28;20239;-75
2023/01/01 02:05:02;;;;;;;56.40;41.17;;;;;;;11.55;100.00;100418.84;5008824;28;20251;-75
2023/01/01 02:07:31;;;;;;;54.33;41.10;;;;;;;11.45;100.00;100416.59;5009253;28;20203;-74
2023/01/01 02:10:01;;;;;;;56.55;40.72;;;;;;;11.38;100.00;100428.66;5021970;28;20199;-74
2023/01/01 02:12:28;;;;;;;57.50;42.33;;;;;;;11.34;100.00;100427.03;5019252;28;20229;-75
2023/01/01 02:14:54;;;;;;;55.45;41.35;;;;;;;11.32;100.00;100433.47;5016067;28;20206;-75
2023/01/01 02:17:28;;;;;;;65.80;43.85;;;;;;;11.23;100.00;100426.69;5016433;28;20209;-76
2023/01/01 02:20:11;;;;;;;62.78;43.88;;;;;;;11.19;100.00;100436.75;5015913;28;20191;-74
2023/01/01 02:23:15;;;;;;;61.03;44.72;;;;;;;11.35;100.00;100438.69;5016489;28;20621;-75
2023/01/01 02:25:54;;;;;;;57.60;44.42;;;;;;;11.53;100.00;100437.81;5005835;28;20203;-75
2023/01/01 02:28:44;;;;;;;67.75;46.42;;;;;;;11.62;100.00;100444.56;4997133;28;20211;-75
2023/01/01 02:31:14;;;;;;;64.82;46.50;;;;;;;11.46;100.00;100456.13;5005944;28;20628;-74
2023/01/01 02:33:44;;;;;;;61.63;45.05;;;;;;;11.28;100.00;100454.28;5015536;28;20183;-74
2023/01/01 02:36:13;;;;;;;65.70;48.08;;;;;;;11.19;100.00;100458.31;5015577;28;20209;-74
2023/01/01 02:38:42;;;;;;;68.13;49.25;;;;;;;11.04;100.00;100449.13;5010538;28;20200;-76
2023/01/01 02:41:12;;;;;;;68.47;48.28;;;;;;;10.97;100.00;100457.56;4996423;28;20607;-75
2023/01/01 02:43:42;;;;;;;69.85;46.97;;;;;;;10.81;100.00;100460.09;4997212;28;20598;-75
2023/01/01 02:46:11;;;;;;;67.88;49.15;;;;;;;10.64;100.00;100475.16;4996995;28;20203;-75
2023/01/01 02:48:40;;;;;;;69.05;50.97;;;;;;;10.62;100.00;100476.19;4995852;28;20207;-75
2023/01/01 02:51:16;;;;;;;77.88;50.53;;;;;;;10.44;100.00;100473.34;5015362;28;20321;-74
2023/01/01 02:53:51;;;;;;;78.90;50.60;;;;;;;10.42;100.00;100482.44;5023737;28;20225;-75
2023/01/01 02:56:27;;;;;;;73.63;50.90;;;;;;;10.48;100.00;100481.31;5016039;28;20194;-74
2023/01/01 03:01:58;;;;;;;75.35;54.58;;;;;;;10.67;100.00;100484.94;5016059;28;20280;-74
2023/01/01 03:04:31;;;;;;;69.80;48.63;;;;;;;10.92;100.00;100481.13;5005879;28;20219;-75
2023/01/01 03:07:07;;;;;;;60.42;45.13;;;;;;;10.93;100.00;100478.38;4997193;28;20188;-74
2023/01/01 03:09:43;;;;;;;67.00;46.35;;;;;;;10.90;100.00;100478.53;4995711;28;20203;-75
2023/01/01 03:12:20;;;;;;;67.47;45.53;;;;;;;10.93;100.00;100481.06;4999804;28;20245;-75
2023/01/01 03:14:55;;;;;;;73.38;49.38;;;;;;;10.87;100.00;100481.34;5001468;28;20665;-73
2023/01/01 03:17:30;;;;;;;70.20;47.95;;;;;;;10.90;100.00;100472.25;5002759;28;20191;-74
2023/01/01 03:20:01;;;;;;;62.65;44.20;;;;;;;10.92;100.00;100478.44;5001600;28;20234;-74
2023/01/01 03:22:32;;;;;;;60.20;41.35;;;;;;;11.14;100.00;100472.94;4999200;28;20227;-75
2023/01/01 03:25:03;;;;;;;58.63;40.13;;;;;;;11.35;100.00;100474.66;5001058;28;20735;-75
2023/01/01 03:27:35;;;;;;;56.28;39.38;;;;;;;11.32;100.00;100477.47;5001064;28;20198;-76
2023/01/01 03:30:08;;;;;;;50.65;40.03;;;;;;;11.29;100.00;100483.00;5000346;28;20210;-73
2023/01/01 03:35:25;;;;;;;63.75;44.22;;;;;;;11.16;100.00;100469.22;5001731;28;20629;-76
2023/01/01 03:37:56;;;;;;;59.85;41.15;;;;;;;11.10;100.00;100477.59;5001008;28;20210;-75
2023/01/01 03:40:24;;;;;;;59.13;43.10;;;;;;;11.04;100.00;100476.06;5010420;28;20562;-74
2023/01/01 03:42:55;;;;;;;52.05;37.97;;;;;;;11.14;100.00;100487.28;5020293;28;20213;-76
2023/01/01 03:45:28;;;;;;;52.58;36.92;;;;;;;11.20;100.00;100491.53;5013698;28;20200;-75
2023/01/01 03:47:55;;;;;;;54.83;38.60;;;;;;;11.11;100.00;100483.88;5000114;28;20566;-75
2023/01/01 03:50:28;;;;;;;53.22;37.92;;;;;;;11.06;100.00;100486.78;5002051;28;20211;-74
2023/01/01 03:53:02;;;;;;;57.42;40.20;;;;;;;11.03;100.00;100487.81;5002209;28;20233;-75
2023/01/01 03:55:33;;;;;;;52.78;37.67;;;;;;;11.07;100.00;100484.00;5020650;28;20274;-75
2023/01/01 03:58:05;;;;;;;42.67;31.55;;;;;;;11.27;100.00;100491.16;5020821;28;20193;-75
2023/01/01 04:00:35;;;;;;;47.13;31.98;;;;;;;11.37;100.00;100488.91;5021899;28;20193;-75
2023/01/01 04:03:05;;;;;;;45.53;31.27;;;;;;;11.33;100.00;100490.03;5022766;28;20657;-74
2023/01/01 04:05:36;;;;;;;39.30;27.88;;;;;;;11.42;100.00;100489.59;5022000;28;20250;-75
2023/01/01 04:08:04;;;;;;;39.80;29.17;;;;;;;11.43;100.00;100494.00;5009599;28;20196;-75
2023/01/01 04:10:34;;;;;;;39.10;27.63;;;;;;;11.43;100.00;100485.06;5008108;28;20199;-75
2023/01/01 04:13:03;;;;;;;38.97;28.75;;;;;;;11.41;100.00;100493.22;5005126;28;20263;-76
2023/01/01 04:15:31;;;;;;;33.72;25.45;;;;;;;11.51;100.00;100487.38;5016175;28;20187;-74
2023/01/01 04:17:59;;;;;;;34.88;25.02;;;;;;;11.61;100.00;100483.31;5017833;28;20648;-76
2023/01/01 04:20:26;;;;;;;31.55;22.52;;;;;;;11.70;100.00;100474.75;5016553;28;20241;-75
2023/01/01 04:22:56;;;;;;;29.85;21.17;;;;;;;11.78;100.00;100477.06;5034391;28;20676;-77
2023/01/01 04:25:22;;;;;;;31.15;20.58;;;;;;;11.74;100.00;100465.56;5037196;28;20230;-76
2023/01/01 04:27:49;;;;;;;30.17;20.92;;;;;;;11.77;100.00;100470.81;5035086;28;20237;-75
2023/01/01 04:30:16;;;;;;;29.35;20.27;;;;;;;11.84;100.00;100474.94;5027539;28;20286;-76
2023/01/01 04:32:42;;;;;;;24.33;16.95;;;;;;;11.94;100.00;100478.13;5014117;28;20196;-76
2023/01/01 04:35:12;;;;;;;25.80;19.67;;;;;;;11.94;100.00;100467.31;5013908;28;20254;-77
2023/01/01 04:37:38;;;;;;;28.13;19.30;;;;;;;11.93;100.00;100476.34;5010695;28;20286;-77
2023/01/01 04:40:07;;;;;;;25.73;18.35;;;;;;;11.91;100.00;100464.75;5009433;28;20266;-75
2023/01/01 04:42:33;;;;;;;26.30;18.95;;;;;;;11.94;100.00;100458.31;5012093;28;20219;-74
2023/01/01 04:45:00;;;;;;;29.50;17.40;;;;;;;11.88;100.00;100470.31;5029849;28;20229;-75
2023/01/01 04:47:27;;;;;;;27.27;19.83;;;;;;;11.79;100.00;100468.03;5024468;28;20293;-75
2023/01/01 04:49:54;;;;;;;27.63;19.55;;;;;;;11.78;100.00;100474.38;5018782;28;20313;-74
2023/01/01 04:52:22;;;;;;;27.20;18.98;;;;;;;11.71;100.00;100467.53;5018391;28;20229;-74
2023/01/01 04:54:49;;;;;;;28.95;20.73;;;;;;;11.65;100.00;100466.88;5028127;28;20297;-75
2023/01/01 04:57:15;;;;;;;25.30;18.85;;;;;;;11.62;100.00;100460.75;5016542;28;20279;-74
2023/01/01 04:59:42;;;;;;;25.30;19.08;;;;;;;11.62;100.00;100490.44;5004881;28;20213;-74
2023/01/01 05:02:09;;;;;;;28.27;20.95;;;;;;;11.65;100.00;100487.59;4998478;28;20227;-74
2023/01/01 05:04:35;;;;;;;26.40;17.73;;;;;;;11.71;100.00;100483.72;4998623;28;20227;-73
2023/01/01 05:07:02;;;;;;;25.55;16.65;;;;;;;11.77;100.00;100491.53;4997770;28;20294;-74
2023/01/01 05:09:30;;;;;;;22.90;17.17;;;;;;;11.80;100.00;100499.47;4997610;28;20199;-73
2023/01/01 05:11:56;;;;;;;21.85;16.15;;;;;;;11.83;100.00;100497.50;5013851;28;20219;-74
2023/01/01 05:14:23;;;;;;;21.33;15.15;;;;;;;11.87;100.00;100501.84;5016721;28;20199;-76
2023/01/01 05:16:49;;;;;;;21.35;15.35;;;;;;;11.88;100.00;100513.50;5016601;28;20589;-75
2023/01/01 05:19:16;;;;;;;22.85;15.57;;;;;;;11.85;100.00;100503.69;5015834;28;20207;-76
2023/01/01 05:21:44;;;;;;;22.50;15.93;;;;;;;11.87;100.00;100509.00;4999911;28;20569;-74
2023/01/01 05:24:11;;;;;;;25.98;17.60;;;;;;;11.84;100.00;100510.03;5001302;28;20234;-76
2023/01/01 05:26:41;;;;;;;19.92;15.30;;;;;;;11.82;100.00;100508.34;4996421;28;20214;-75
2023/01/01 05:29:08;;;;;;;18.13;13.80;;;;;;;11.83;100.00;100518.22;4995783;28;20294;-75
2023/01/01 05:31:36;;;;;;;22.40;15.90;;;;;;;11.78;100.00;100528.34;4997083;28;20310;-76
2023/01/01 05:34:04;;;;;;;23.85;15.98;;;;;;;11.72;100.00;100524.13;5010955;28;20277;-75
2023/01/01 05:36:32;;;;;;;24.75;15.50;;;;;;;11.67;100.00;100532.44;5016860;28;20202;-75
2023/01/01 05:38:59;;;;;;;20.67;14.02;;;;;;;11.71;100.00;100533.16;5019348;28;20198;-74
2023/01/01 05:41:26;;;;;;;24.60;14.68;;;;;;;11.62;100.00;100522.81;5026856;28;20237;-75
2023/01/01 05:43:54;;;;;;;32.17;16.95;;;;;;;11.59;100.00;100520.25;5026591;28;20676;-74
2023/01/01 05:46:23;;;;;;;21.00;14.25;;;;;;;11.57;100.00;100530.25;5012993;28;20199;-74
2023/01/01 05:48:50;;;;;;;21.58;14.95;;;;;;;11.57;100.00;100520.31;5009233;28;20270;-75
2023/01/01 05:51:19;;;;;;;25.10;15.23;;;;;;;11.45;100.00;100524.47;5006200;28;20223;-73
2023/01/01 05:53:47;;;;;;;23.13;15.98;;;;;;;11.47;100.00;100525.28;4999577;28;20211;-74
2023/01/01 05:56:15;;;;;;;21.40;15.93;;;;;;;11.50;100.00;100524.25;4997783;28;20593;-73
2023/01/01 05:58:42;;;;;;;25.25;16.25;;;;;;;11.46;100.00;100528.03;4996344;28;20206;-74
2023/01/01 06:01:13;;;;;;;18.75;13.90;;;;;;;11.46;100.00;100518.16;5009142;28;20734;-73
2023/01/01 06:03:40;;;;;;;18.92;13.85;;;;;;;11.49;100.00;100527.94;5016687;28;20237;-74
2023/01/01 06:06:09;;;;;;;18.90;13.77;;;;;;;11.51;100.00;100527.84;5016692;28;20398;-75
2023/01/01 06:08:36;;;;;;;18.27;13.77;;;;;;;11.44;100.00;100529.94;5015664;28;20211;-76
2023/01/01 06:11:05;;;;;;;19.92;14.13;;;;;;;11.43;100.00;100539.84;5001228;28;20219;-74
2023/01/01 06:13:32;;;;;;;23.10;12.63;;;;;;;11.47;100.00;100544.16;4996109;28;20195;-75
2023/01/01 06:16:01;;;;;;;18.70;13.88;;;;;;;11.45;100.00;100540.66;4996841;28;20218;-75
2023/01/01 06:18:32;;;;;;;16.92;11.50;;;;;;;11.51;100.00;100533.22;4994958;28;20207;-75
2023/01/01 06:21:04;;;;;;;19.90;11.35;;;;;;;11.61;100.00;100545.34;4995910;28;20227;-74
2023/01/01 06:23:31;;;;;;;18.63;13.05;;;;;;;11.62;100.00;100544.38;5001220;28;20207;-75
2023/01/01 06:26:04;;;;;;;16.50;11.45;;;;;;;11.63;100.00;100547.03;5015470;28;20225;-76
2023/01/01 06:28:31;;;;;;;17.50;12.00;;;;;;;11.63;100.00;100546.16;4980204;28;20204;-75
2023/01/01 06:30:59;;;;;;;14.75;10.65;;;;;;;11.59;100.00;100536.44;4977304;28;20236;-74
2023/01/01 06:33:26;;;;;;;14.60;11.25;;;;;;;11.61;100.00;100539.94;4986510;28;20776;-75
2023/01/01 06:35:54;;;;;;;19.38;11.20;;;;;;;11.64;100.00;100539.78;4995579;28;20214;-75
2023/01/01 06:38:20;;;;;;;16.80;11.80;;;;;;;11.68;100.00;100549.50;4995586;28;20199;-76
2023/01/01 06:40:55;;;;;;;16.58;11.02;;;;;;;11.57;100.00;100551.81;4997009;28;20229;-76
2023/01/01 06:43:21;;;;;;;15.02;10.70;;;;;;;11.66;100.00;100556.78;4997103;28;20282;-76
2023/01/01 06:45:48;;;;;;;16.27;9.63;;;;;;;11.67;100.00;100563.94;4996148;28;20222;-75
2023/01/01 06:48:14;;;;;;;17.33;9.65;;;;;;;11.65;100.00;100563.13;4995254;28;20207;-74
2023/01/01 06:50:41;;;;;;;15.88;10.50;;;;;;;11.64;100.00;100559.53;4996141;28;20247;-74
2023/01/01 06:53:09;;;;;;;18.70;11.07;;;;;;;11.63;100.00;100563.22;4995909;28;20207;-75
2023/01/01 06:55:37;;;;;;;13.20;9.73;;;;;;;11.66;100.00;100563.06;4995658;28;20203;-74
2023/01/01 06:58:08;;;;;;;12.15;9.13;;;;;;;11.67;100.00;100570.22;5005828;28;20222;-75
2023/01/01 07:00:34;;;;;;;12.27;9.13;;;;;;;11.70;100.00;100574.59;5011116;28;20226;-74
2023/01/01 07:03:01;;;;;;;11.75;8.38;;;;;;;11.68;100.00;100573.78;5034070;23;20226;-71
2023/01/01 07:05:27;;;;;;;12.13;8.07;;;;;;;11.69;100.00;100586.34;5024144;28;20285;-71
2023/01/01 07:07:54;;;;;;;13.75;8.85;;;;;;;11.71;100.00;100580.84;5023315;28;20301;-73
2023/01/01 07:10:22;;;;;;;13.13;8.95;;;;;;;11.71;100.00;100587.13;5024587;28;20290;-71
2023/01/01 07:12:48;;;;;;;12.75;7.80;;;;;;;11.74;100.00;100588.81;5023700;28;20222;-71
2023/01/01 07:15:15;;;;;;;8.85;7.25;;;;;;;11.73;100.00;100589.75;5024836;28;20202;-73
2023/01/01 07:17:41;;;;;;;13.90;8.15;;;;;;;11.72;100.00;100588.88;5023814;28;20237;-72
2023/01/01 07:20:09;;;;;;;12.23;7.97;;;;;;;11.74;100.00;100575.31;5021553;28;20291;-74
2023/01/01 07:22:37;;;;;;;11.02;7.88;;;;;;;11.74;100.00;100587.00;5005133;28;20283;-70
2023/01/01 07:25:04;;;;;;;12.70;8.25;;;;;;;11.79;100.00;100587.63;5021166;28;20218;-73
2023/01/01 07:27:32;;;;;;;14.75;8.10;;;;;;;11.75;100.00;100593.25;5027035;28;20203;-74
2023/01/01 07:29:59;;;;;;;11.65;8.10;;;;;;;11.80;100.00;100591.19;5031821;28;20297;-74
2023/01/01 07:32:25;;;;;;;12.25;8.00;;;;;;;11.80;100.00;100591.19;5028471;28;20657;-71
2023/01/01 07:34:52;;;;;;;12.07;6.72;;;;;;;11.79;100.00;100595.72;5025095;28;20206;-72
2023/01/01 07:37:19;;;;;;;9.85;6.90;;;;;;;11.90;100.00;100606.06;5025489;28;20203;-75
2023/01/01 07:39:45;;;;;;;10.88;6.50;;;;;;;11.93;100.00;100614.00;5024774;28;20202;-74
2023/01/01 07:42:12;;;;;;;17.33;7.35;;;;;;;11.93;100.00;100622.09;5007972;28;20227;-74
2023/01/01 07:44:40;;;;;;;10.38;7.13;;;;;;;12.05;100.00;100635.03;5004887;28;20223;-71
2023/01/01 07:47:20;;;;;;;9.65;6.20;;;;;;;12.05;100.00;100629.63;5012388;28;20213;-74
2023/01/01 07:49:47;;;;;;;10.75;6.97;;;;;;;12.10;100.00;100632.97;5003742;28;20211;-72
2023/01/01 07:52:13;;;;;;;11.00;7.30;;;;;;;12.09;100.00;100630.34;5004303;28;20405;-72
2023/01/01 07:54:40;;;;;;;11.43;6.22;;;;;;;12.15;100.00;100642.69;5005321;28;20580;-71
2023/01/01 07:57:07;;;;;;;14.52;6.95;;;;;;;12.14;100.00;100644.47;5003944;28;20207;-73
2023/01/01 07:59:34;;;;;;;9.70;5.97;;;;;;;12.10;100.00;100645.59;5003168;28;20628;-72
2023/01/01 08:02:02;;;;;;;9.10;6.32;;;;;;;12.11;100.00;100652.72;5012411;28;20219;-73
2023/01/01 08:04:28;;;;;;;8.23;5.88;;;;;;;12.23;100.00;100646.75;5024116;28;20207;-73
2023/01/01 08:06:55;;;;;;;10.02;7.10;;;;;;;12.35;100.00;100645.28;5023947;28;20199;-74
2023/01/01 08:09:22;;;;;;;9.52;7.10;;;;;;;12.38;100.00;100633.44;5024072;28;20198;-73
2023/01/01 08:11:51;;;;;;;9.82;6.07;;;;;;;12.42;100.00;100622.44;5025715;28;20227;-74
2023/01/01 08:14:18;;;;;;;11.57;6.20;;;;;;;12.51;100.00;100631.91;5026847;28;20199;-74
2023/01/01 08:16:44;;;;;;;9.90;6.45;;;;;;;12.71;100.00;100633.59;5027041;28;20202;-71
2023/01/01 08:19:12;;;;;;;7.32;5.68;;;;;;;12.72;100.00;100640.75;5026078;28;20299;-72
2023/01/01 08:21:39;;;;;;;9.27;6.72;;;;;;;12.73;100.00;100643.38;5009242;28;20229;-73
2023/01/01 08:24:05;;;;;;;7.75;5.43;;;;;;;12.86;100.00;100645.44;5007144;28;20264;-73
2023/01/01 08:26:34;;;;;;;6.20;4.93;;;;;;;12.88;100.00;100646.25;5028819;28;20226;-71
2023/01/01 08:29:03;;;;;;;8.50;5.80;;;;;;;13.01;100.00;100643.81;5028279;28;20262;-71
2023/01/01 08:31:30;;;;;;;8.85;5.45;;;;;;;13.00;100.00;100648.34;5027850;28;20309;-72
2023/01/01 08:33:56;;;;;;;9.90;6.15;;;;;;;13.19;100.00;100659.06;5027840;28;20206;-69
2023/01/01 08:36:24;;;;;;;8.70;6.18;;;;;;;13.42;100.00;100659.72;5026657;28;20213;-73
2023/01/01 08:38:51;;;;;;;27.80;16.63;;;;;;;13.67;100.00;100656.56;5023586;28;20191;-71
2023/01/01 08:41:18;;;;;;;13.88;8.63;;;;;;;13.56;100.00;100659.84;5025381;28;20210;-72
2023/01/01 08:43:44;;;;;;;9.65;6.32;;;;;;;13.61;100.00;100665.88;5015511;28;20191;-72
2023/01/01 08:46:11;;;;;;;10.13;5.90;;;;;;;13.46;100.00;100667.59;5026263;28;20223;-69
2023/01/01 08:48:37;;;;;;;8.05;5.50;;;;;;;13.59;100.00;100672.34;5016796;28;20201;-70
2023/01/01 08:51:04;;;;;;;8.20;6.22;;;;;;;13.70;100.00;100667.22;5024956;28;20225;-69
2023/01/01 08:53:32;;;;;;;6.80;4.70;;;;;;;13.85;100.00;100670.94;5024355;28;20262;-69
2023/01/01 08:56:02;;;;;;;10.30;4.70;;;;;;;13.91;100.00;100676.88;5025608;28;20221;-68
2023/01/01 08:58:29;;;;;;;8.77;6.03;;;;;;;14.03;100.00;100682.59;5024590;28;20660;-70
2023/01/01 09:00:56;;;;;;;5.90;4.80;;;;;;;14.14;100.00;100685.59;5026373;28;20199;-70
2023/01/01 09:03:23;;;;;;;5.80;4.45;;;;;;;14.12;100.00;100682.09;5026597;28;20269;-69
2023/01/01 09:05:49;;;;;;;7.97;4.45;;;;;;;14.01;100.00;100693.50;5025935;28;20229;-70
2023/01/01 09:08:16;;;;;;;10.70;5.50;;;;;;;14.12;100.00;100690.19;5025946;28;20228;-70
2023/01/01 09:10:45;;;;;;;6.50;4.45;;;;;;;14.07;100.00;100695.88;5026676;28;20203;-68
2023/01/01 09:13:11;;;;;;;7.32;4.20;;;;;;;14.07;100.00;100698.59;5026822;28;20286;-69
2023/01/01 09:15:38;;;;;;;14.32;5.07;;;;;;;14.04;100.00;100697.88;5026933;28;20259;-70
2023/01/01 09:18:05;;;;;;;6.50;4.13;;;;;;;14.08;100.00;100694.91;5027049;28;20290;-73
2023/01/01 09:20:32;;;;;;;75.60;54.17;;;;;;;14.15;100.00;100699.00;5027414;28;20230;-72
2023/01/01 09:22:58;;;;;;;11.13;7.75;;;;;;;14.33;100.00;100705.25;5025406;28;20229;-72
2023/01/01 09:25:25;;;;;;;13.02;6.55;;;;;;;14.50;100.00;100714.28;5028976;28;20284;-71
2023/01/01 09:27:58;;;;;;;12.60;6.65;;;;;;;14.39;100.00;100723.00;5028640;28;20201;-72
2023/01/01 09:30:25;;;;;;;9.88;6.18;;;;;;;14.31;100.00;100734.28;5027964;28;20207;-72
2023/01/01 09:32:51;;;;;;;9.30;5.00;;;;;;;14.27;100.00;100738.13;5014768;28;20253;-71
2023/01/01 09:35:19;;;;;;;7.65;5.28;;;;;;;14.37;100.00;100736.63;5003434;28;20259;-74
2023/01/01 09:37:45;;;;;;;10.98;4.15;;;;;;;14.39;100.00;100720.28;5017571;28;20210;-72
2023/01/01 09:40:27;;;;;;;7.45;5.60;;;;;;;14.35;100.00;100724.13;5018832;28;20230;-76
2023/01/01 09:43:05;;;;;;;9.80;5.53;;;;;;;14.39;100.00;100715.75;5018538;28;20230;-73
2023/01/01 09:45:37;;;;;;;6.53;4.60;;;;;;;14.33;100.00;100715.22;5019125;28;20213;-70
2023/01/01 09:48:06;;;;;;;6.78;4.18;;;;;;;14.49;100.00;100720.63;5014262;28;20586;-72
2023/01/01 09:50:38;;;;;;;8.18;4.65;;;;;;;14.65;100.00;100713.41;5005018;28;20201;-72
2023/01/01 09:53:07;;;;;;;10.30;5.18;;;;;;;14.72;100.00;100708.50;5000984;28;20230;-73
2023/01/01 09:55:42;;;;;;;4.82;3.13;;;;;;;14.71;100.00;100718.50;5020560;28;20572;-71
2023/01/01 09:58:11;;;;;;;6.22;3.65;;;;;;;14.77;100.00;100726.28;5019866;28;20214;-71
2023/01/01 10:00:41;;;;;;;7.18;3.50;;;;;;;14.98;100.00;100724.16;5020503;28;20482;-71
2023/01/01 10:03:28;;;;;;;6.32;3.20;;;;;;;14.97;100.00;100722.41;5018211;28;20222;-73
2023/01/01 10:06:00;;;;;;;8.20;3.60;;;;;;;14.87;100.00;100710.34;5019005;28;20203;-72
2023/01/01 10:08:40;;;;;;;6.20;3.42;;;;;;;14.95;100.00;100691.78;5019287;28;20195;-70
2023/01/01 10:11:16;;;;;;;6.40;3.63;;;;;;;15.04;100.00;100687.66;5019395;28;20202;-74
2023/01/01 10:13:45;;;;;;;5.90;3.50;;;;;;;15.00;100.00;100689.66;5020697;28;20563;-74
2023/01/01 10:16:19;;;;;;;4.63;3.03;;;;;;;14.82;100.00;100703.44;5025860;28;20194;-73
2023/01/01 10:18:48;;;;;;;6.28;3.20;;;;;;;14.92;100.00;100700.09;5028385;28;20195;-72
2023/01/01 10:21:17;;;;;;;5.13;3.35;;;;;;;14.98;100.00;100702.44;5028905;28;20217;-73
2023/01/01 10:23:48;;;;;;;5.57;3.63;;;;;;;15.24;100.00;100686.47;5028020;28;20643;-72
2023/01/01 10:26:16;;;;;;;11.35;7.07;;;;;;;15.39;100.00;100693.66;5023279;28;20199;-74
2023/01/01 10:28:54;;;;;;;28.90;21.17;;;;;;;15.54;100.00;100694.59;5024204;28;20213;-72
2023/01/01 10:31:29;;;;;;;6.50;3.10;;;;;;;15.75;100.00;100695.13;5016713;28;20218;-70
2023/01/01 10:33:56;;;;;;;6.30;3.20;;;;;;;16.12;100.00;100695.50;5016076;28;20675;-69
2023/01/01 10:36:23;;;;;;;7.70;3.40;;;;;;;16.04;100.00;100698.72;5017488;28;20281;-71
2023/01/01 10:38:50;;;;;;;4.47;3.45;;;;;;;15.89;100.00;100694.25;5017234;28;20257;-71
2023/01/01 10:41:17;;;;;;;6.70;3.50;;;;;;;15.64;100.00;100698.47;5003022;28;20201;-72
2023/01/01 10:43:46;;;;;;;6.05;3.80;;;;;;;15.53;100.00;100705.53;5011793;28;20225;-71
2023/01/01 10:46:16;;;;;;;6.97;3.25;;;;;;;15.32;100.00;100703.16;5018290;28;20225;-70
2023/01/01 10:49:03;;;;;;;4.28;2.92;;;;;;;15.26;100.00;100705.34;5016860;28;20206;-69
2023/01/01 10:51:30;;;;;;;8.35;3.00;;;;;;;15.04;100.00;100690.38;5017205;28;20218;-73
2023/01/01 10:53:57;;;;;;;7.85;3.03;;;;;;;14.98;100.00;100691.59;5016455;28;20229;-73
2023/01/01 10:56:27;;;;;;;6.97;3.50;;;;;;;14.94;100.00;100694.59;5014386;28;20281;-71
2023/01/01 10:58:57;;;;;;;7.20;2.80;;;;;;;14.91;100.00;100686.63;5014035;28;20246;-71
2023/01/01 11:01:25;;;;;;;6.30;2.83;;;;;;;14.92;100.00;100696.50;5015029;28;20225;-74
2023/01/01 11:03:55;;;;;;;8.60;4.43;;;;;;;14.93;100.00;100698.28;5015309;28;20191;-73
2023/01/01 11:06:24;;;;;;;6.28;3.00;;;;;;;14.96;100.00;100695.38;5015937;28;20218;-73
2023/01/01 11:08:53;;;;;;;4.68;3.25;;;;;;;15.03;100.00;100688.63;5014621;28;20209;-73
2023/01/01 11:11:22;;;;;;;4.95;3.03;;;;;;;15.16;100.00;100686.91;5015506;28;20298;-74
2023/01/01 11:13:54;;;;;;;4.03;2.78;;;;;;;15.20;100.00;100696.63;5018231;28;20198;-72
2023/01/01 11:16:23;;;;;;;5.80;3.10;;;;;;;15.27;100.00;100690.84;5023378;28;20218;-75
2023/01/01 11:18:50;;;;;;;7.30;2.75;;;;;;;15.44;100.00;100682.53;5022794;28;20209;-74
2023/01/01 11:21:22;;;;;;;7.38;3.13;;;;;;;15.57;100.00;100672.66;5016343;28;20238;-72
2023/01/01 11:23:51;;;;;;;9.40;3.45;;;;;;;15.45;100.00;100661.72;5013893;28;20241;-73